createdAt,value
2022-09-11T00:00:24.785Z,5.35
2022-09-11T00:03:11.098Z,5.95
2022-09-11T00:07:10.277Z,6.22
2022-09-11T00:13:31.963Z,6.53
2022-09-11T00:16:27.033Z,5.60
2022-09-11T00:26:48.392Z,5.57
2022-09-11T00:29:33.839Z,5.82
2022-09-11T00:32:20.041Z,6.07
2022-09-11T00:35:05.738Z,6.03
2022-09-11T00:37:51.496Z,5.82
2022-09-11T00:40:48.452Z,7.40
2022-09-11T00:58:19.313Z,7.40
2022-09-11T01:04:48.460Z,6.70
2022-09-11T01:07:36.314Z,6.45
2022-09-11T01:10:59.383Z,6.63
2022-09-11T01:13:56.118Z,6.50
2022-09-11T01:17:05.157Z,6.47
2022-09-11T01:20:24.263Z,6.93
2022-09-11T01:23:55.257Z,6.32
2022-09-11T01:26:59.568Z,6.28
2022-09-11T01:29:58.459Z,6.07
2022-09-11T01:32:55.322Z,6.33
2022-09-11T01:35:49.914Z,5.72
2022-09-11T01:38:41.275Z,5.60
2022-09-11T01:41:44.897Z,6.45
2022-09-11T01:44:36.912Z,6.40
2022-09-11T01:47:28.933Z,6.90
2022-09-11T01:50:17.958Z,7.57
2022-09-11T01:53:06.609Z,9.03
2022-09-11T01:56:02.254Z,8.52
2022-09-11T01:58:59.464Z,7.75
2022-09-11T02:01:51.234Z,8.88
2022-09-11T02:04:44.103Z,8.60
2022-09-11T02:07:37.360Z,8.68
2022-09-11T02:10:47.613Z,8.93
2022-09-11T02:13:51.195Z,8.43
2022-09-11T02:16:51.810Z,7.63
2022-09-11T02:19:39.239Z,7.57
2022-09-11T02:22:25.049Z,7.85
2022-09-11T02:25:11.431Z,7.93
2022-09-11T02:27:57.023Z,7.47
2022-09-11T02:30:42.840Z,7.47
2022-09-11T02:33:33.856Z,6.50
2022-09-11T02:36:32.533Z,7.30
2022-09-11T02:39:34.324Z,7.07
2022-09-11T02:42:50.943Z,8.02
2022-09-11T02:46:24.645Z,8.77
2022-09-11T02:49:36.866Z,8.10
2022-09-11T02:52:56.859Z,6.80
2022-09-11T02:56:00.628Z,6.70
2022-09-11T02:58:55.462Z,6.90
2022-09-11T03:01:53.315Z,6.43
2022-09-11T03:04:41.960Z,7.43
2022-09-11T03:07:27.221Z,8.65
2022-09-11T03:10:12.760Z,9.05
2022-09-11T03:12:59.624Z,8.88
2022-09-11T03:15:45.205Z,9.43
2022-09-11T03:18:32.953Z,9.75
2022-09-11T03:21:18.996Z,11.18
2022-09-11T03:24:05.003Z,11.65
2022-09-11T03:26:52.072Z,13.05
2022-09-11T03:29:37.732Z,18.20
2022-09-11T03:32:23.564Z,15.65
2022-09-11T03:35:09.271Z,14.32
2022-09-11T03:37:55.971Z,12.05
2022-09-11T03:40:44.501Z,13.98
2022-09-11T03:43:30.887Z,18.03
2022-09-11T03:46:17.714Z,19.85
2022-09-11T03:49:03.308Z,15.48
2022-09-11T03:51:49.507Z,13.73
2022-09-11T03:54:35.483Z,14.35
2022-09-11T03:57:20.531Z,14.55
2022-09-11T04:00:07.052Z,16.58
2022-09-11T04:03:05.544Z,14.50
2022-09-11T04:08:42.560Z,14.98
2022-09-11T04:11:34.285Z,14.98
2022-09-11T04:14:22.502Z,15.80
2022-09-11T04:17:08.440Z,19.00
2022-09-11T04:19:54.682Z,18.50
2022-09-11T04:22:40.911Z,16.95
2022-09-11T04:25:26.226Z,16.88
2022-09-11T04:28:12.709Z,15.57
2022-09-11T04:31:04.538Z,17.88
2022-09-11T04:33:54.766Z,17.27
2022-09-11T04:36:48.010Z,18.42
2022-09-11T04:39:38.080Z,18.13
2022-09-11T04:42:23.584Z,20.70
2022-09-11T04:45:11.082Z,20.92
2022-09-11T04:47:56.709Z,18.88
2022-09-11T04:50:42.093Z,18.80
2022-09-11T04:53:39.603Z,17.17
2022-09-11T04:56:31.431Z,16.52
2022-09-11T04:59:20.039Z,17.48
2022-09-11T05:02:10.860Z,17.27
2022-09-11T05:04:59.514Z,20.08
2022-09-11T05:07:50.196Z,18.90
2022-09-11T05:10:38.364Z,17.58
2022-09-11T05:13:24.200Z,18.15
2022-09-11T05:16:12.433Z,18.85
2022-09-11T05:18:59.398Z,19.05
2022-09-11T05:21:44.664Z,18.25
2022-09-11T05:24:30.158Z,17.48
2022-09-11T05:27:16.015Z,20.95
2022-09-11T05:30:02.248Z,18.33
2022-09-11T05:32:53.759Z,19.40
2022-09-11T05:35:38.744Z,18.75
2022-09-11T05:38:24.157Z,18.42
2022-09-11T05:41:12.844Z,19.63
2022-09-11T05:43:58.765Z,20.10
2022-09-11T05:46:44.438Z,20.58
2022-09-11T05:49:29.727Z,22.60
2022-09-11T05:52:16.873Z,20.73
2022-09-11T05:55:02.657Z,20.25
2022-09-11T05:57:52.218Z,20.40
2022-09-11T06:00:37.584Z,22.13
2022-09-11T06:03:23.267Z,21.92
2022-09-11T06:06:13.364Z,21.85
2022-09-11T06:12:01.658Z,22.88
2022-09-11T06:14:47.943Z,21.00
2022-09-11T06:17:33.720Z,21.90
2022-09-11T06:20:19.358Z,22.60
2022-09-11T06:23:10.521Z,23.10
2022-09-11T06:26:11.665Z,22.48
2022-09-11T06:28:59.657Z,22.80
2022-09-11T06:31:45.877Z,21.00
2022-09-11T06:34:32.266Z,21.65
2022-09-11T06:37:21.334Z,22.05
2022-09-11T06:40:07.948Z,21.13
2022-09-11T06:42:54.218Z,20.30
2022-09-11T06:45:43.387Z,21.25
2022-09-11T06:48:30.539Z,21.48
2022-09-11T06:51:18.153Z,21.92
2022-09-11T06:54:07.762Z,21.88
2022-09-11T06:56:54.342Z,21.58
2022-09-11T06:59:39.729Z,21.60
2022-09-11T07:02:25.568Z,21.08
2022-09-11T07:05:13.211Z,23.35
2022-09-11T07:07:58.442Z,21.75
2022-09-11T07:10:47.271Z,21.67
2022-09-11T07:13:37.187Z,21.08
2022-09-11T07:16:23.741Z,20.42
2022-09-11T07:19:13.249Z,20.60
2022-09-11T07:21:58.867Z,18.80
2022-09-11T07:24:47.327Z,17.85
2022-09-11T07:27:33.662Z,18.02
2022-09-11T07:30:22.854Z,19.23
2022-09-11T07:33:12.086Z,17.92
2022-09-11T07:35:57.435Z,16.83
2022-09-11T07:38:44.572Z,15.65
2022-09-11T07:41:31.976Z,16.88
2022-09-11T07:44:22.744Z,14.68
2022-09-11T07:47:08.407Z,14.52
2022-09-11T07:49:59.576Z,15.80
2022-09-11T07:52:44.962Z,14.93
2022-09-11T07:55:31.158Z,15.90
2022-09-11T07:58:19.446Z,14.23
2022-09-11T08:01:06.781Z,14.07
2022-09-11T08:03:58.144Z,14.45
2022-09-11T08:06:46.324Z,15.20
2022-09-11T08:09:39.870Z,13.50
2022-09-11T08:12:26.571Z,12.88
2022-09-11T08:15:11.925Z,14.10
2022-09-11T08:17:57.436Z,14.27
2022-09-11T08:20:42.944Z,14.23
2022-09-11T08:23:28.120Z,14.32
2022-09-11T08:26:19.632Z,13.55
2022-09-11T08:29:06.760Z,13.43
2022-09-11T08:31:56.358Z,14.10
2022-09-11T08:34:44.679Z,13.52
2022-09-11T08:37:30.043Z,13.93
2022-09-11T08:40:15.358Z,13.07
2022-09-11T08:43:03.324Z,12.63
2022-09-11T08:45:51.619Z,13.13
2022-09-11T08:49:11.580Z,12.85
2022-09-11T08:52:01.962Z,12.80
2022-09-11T08:54:48.416Z,13.45
2022-09-11T08:57:42.573Z,12.30
2022-09-11T09:00:43.290Z,11.77
2022-09-11T09:07:07.430Z,12.60
2022-09-11T09:10:18.546Z,12.48
2022-09-11T09:13:28.759Z,12.35
2022-09-11T09:16:36.110Z,11.98
2022-09-11T09:19:26.328Z,12.10
2022-09-11T09:22:11.947Z,12.05
2022-09-11T09:25:02.111Z,11.70
2022-09-11T09:28:25.896Z,11.75
2022-09-11T09:31:16.649Z,12.32
2022-09-11T09:34:12.883Z,11.40
2022-09-11T09:37:05.177Z,11.40
2022-09-11T09:39:51.359Z,11.48
2022-09-11T09:43:02.180Z,11.95
2022-09-11T09:46:02.212Z,12.25
2022-09-11T09:48:47.786Z,11.57
2022-09-11T09:51:33.149Z,11.77
2022-09-11T09:54:22.830Z,10.68
2022-09-11T09:57:10.810Z,9.80
2022-09-11T10:00:02.434Z,10.93
2022-09-11T10:02:58.549Z,10.25
2022-09-11T10:05:44.442Z,11.93
2022-09-11T10:08:34.355Z,10.70
2022-09-11T10:11:28.840Z,12.70
2022-09-11T10:14:49.252Z,11.45
2022-09-11T10:17:33.292Z,11.00
2022-09-11T10:20:18.533Z,10.00
2022-09-11T10:23:26.023Z,11.65
2022-09-11T10:26:36.422Z,10.60
2022-09-11T10:29:29.261Z,10.00
2022-09-11T10:32:18.083Z,11.38
2022-09-11T10:35:09.495Z,10.23
2022-09-11T10:38:38.102Z,10.40
2022-09-11T10:41:28.642Z,8.95
2022-09-11T10:44:15.952Z,9.05
2022-09-11T10:47:15.833Z,9.50
2022-09-11T10:50:17.241Z,9.38
2022-09-11T10:53:17.143Z,8.73
2022-09-11T10:56:14.883Z,8.23
2022-09-11T10:59:07.264Z,8.50
2022-09-11T11:01:53.705Z,8.57
2022-09-11T11:04:39.010Z,8.18
2022-09-11T11:07:53.165Z,7.32
2022-09-11T11:11:06.944Z,7.78
2022-09-11T11:14:14.540Z,9.35
2022-09-11T11:17:05.816Z,8.75
2022-09-11T11:20:21.133Z,8.93
2022-09-11T11:23:13.318Z,9.70
2022-09-11T11:26:21.433Z,9.40
2022-09-11T11:29:25.707Z,10.20
2022-09-11T11:32:19.965Z,10.13
2022-09-11T11:35:26.528Z,8.93
2022-09-11T11:38:41.391Z,7.95
2022-09-11T11:41:35.100Z,9.20
2022-09-11T11:44:35.896Z,8.25
2022-09-11T11:51:08.723Z,7.93
2022-09-11T11:54:06.889Z,9.20
2022-09-11T11:56:56.396Z,8.55
2022-09-11T11:59:44.501Z,7.95
2022-09-11T12:02:51.955Z,5.82
2022-09-11T12:05:38.533Z,6.05
2022-09-11T12:08:24.092Z,6.20
2022-09-11T12:11:12.314Z,6.28
2022-09-11T12:13:57.975Z,6.15
2022-09-11T12:16:44.255Z,5.88
2022-09-11T12:19:29.729Z,6.43
2022-09-11T12:22:32.929Z,5.57
2022-09-11T12:25:21.313Z,5.97
2022-09-11T12:28:22.152Z,6.32
2022-09-11T12:31:08.662Z,7.22
2022-09-11T12:33:54.854Z,6.40
2022-09-11T12:37:04.095Z,5.68
2022-09-11T12:39:53.642Z,5.47
2022-09-11T12:42:38.695Z,6.68
2022-09-11T12:45:38.375Z,6.30
2022-09-11T12:48:33.580Z,4.63
2022-09-11T12:51:38.152Z,3.83
2022-09-11T12:54:31.878Z,4.90
2022-09-11T12:57:29.125Z,4.70
2022-09-11T13:00:23.974Z,4.38
2022-09-11T13:03:28.001Z,4.20
2022-09-11T13:06:13.693Z,4.90
2022-09-11T13:19:39.363Z,5.15
2022-09-11T13:22:31.301Z,4.57
2022-09-11T13:25:27.841Z,5.18
2022-09-11T13:28:20.357Z,5.07
2022-09-11T13:31:17.279Z,5.68
2022-09-11T13:34:05.925Z,5.30
2022-09-11T13:36:56.560Z,5.47
2022-09-11T13:39:43.407Z,5.63
2022-09-11T13:42:29.370Z,5.65
2022-09-11T13:45:20.318Z,5.32
2022-09-11T13:48:19.193Z,5.25
2022-09-11T13:51:06.113Z,5.18
2022-09-11T13:54:56.103Z,5.57
2022-09-11T13:58:01.638Z,4.88
2022-09-11T14:00:50.413Z,3.63
2022-09-11T14:03:36.509Z,3.47
2022-09-11T14:06:21.908Z,3.40
2022-09-11T14:09:13.718Z,3.55
2022-09-11T14:12:03.209Z,3.10
2022-09-11T14:14:56.797Z,3.50
2022-09-11T14:17:42.161Z,3.17
2022-09-11T14:20:31.415Z,3.20
2022-09-11T14:23:30.147Z,3.00
2022-09-11T14:26:18.299Z,3.10
2022-09-11T14:29:32.574Z,3.17
2022-09-11T14:32:37.848Z,3.60
2022-09-11T14:35:25.047Z,3.10
2022-09-11T14:38:15.099Z,3.53
2022-09-11T14:41:04.003Z,3.20
2022-09-11T14:43:49.756Z,3.53
2022-09-11T14:46:35.346Z,3.30
2022-09-11T14:49:21.078Z,3.42
2022-09-11T14:52:06.677Z,3.55
2022-09-11T14:54:52.341Z,4.03
2022-09-11T14:57:37.814Z,4.38
2022-09-11T15:00:23.319Z,4.30
2022-09-11T15:03:08.458Z,3.78
2022-09-11T15:05:58.529Z,3.70
2022-09-11T15:08:45.793Z,3.90
2022-09-11T15:11:37.390Z,4.30
2022-09-11T15:14:51.850Z,4.03
2022-09-11T15:17:31.500Z,4.55
2022-09-11T15:20:18.996Z,4.60
2022-09-11T15:23:04.410Z,4.82
2022-09-11T15:25:49.930Z,4.10
2022-09-11T15:28:35.206Z,3.90
2022-09-11T15:31:20.488Z,4.40
2022-09-11T15:34:07.288Z,4.88
2022-09-11T15:36:52.614Z,4.70
2022-09-11T15:39:38.393Z,4.80
2022-09-11T15:42:23.748Z,5.15
2022-09-11T15:45:09.803Z,4.90
2022-09-11T15:47:55.187Z,3.80
2022-09-11T15:50:40.505Z,4.25
2022-09-11T15:53:29.611Z,3.97
2022-09-11T15:56:25.263Z,4.13
2022-09-11T15:59:12.401Z,3.53
2022-09-11T16:01:59.100Z,2.90
2022-09-11T16:04:44.415Z,3.03
2022-09-11T16:07:29.555Z,2.50
2022-09-11T16:10:14.809Z,2.90
2022-09-11T16:13:01.056Z,3.30
2022-09-11T16:15:49.171Z,2.80
2022-09-11T16:18:40.081Z,2.70
2022-09-11T16:21:27.098Z,2.72
2022-09-11T16:24:14.600Z,2.25
2022-09-11T16:27:01.564Z,2.92
2022-09-11T16:32:52.887Z,2.53
2022-09-11T16:35:39.276Z,2.10
2022-09-11T16:38:25.793Z,2.20
2022-09-11T16:41:20.150Z,2.00
2022-09-11T16:44:07.270Z,2.05
2022-09-11T16:46:52.607Z,1.88
2022-09-11T16:50:03.247Z,1.92
2022-09-11T16:52:43.048Z,2.75
2022-09-11T16:55:28.531Z,4.63
2022-09-11T16:58:14.224Z,2.28
2022-09-11T17:00:59.995Z,2.20
2022-09-11T17:03:55.601Z,2.13
2022-09-11T17:06:40.625Z,2.17
2022-09-11T17:09:26.444Z,2.85
2022-09-11T17:12:17.856Z,2.70
2022-09-11T17:15:03.735Z,3.45
2022-09-11T17:17:49.566Z,3.30
2022-09-11T17:20:34.881Z,43.92
2022-09-11T17:23:20.500Z,4.60
2022-09-11T17:26:12.201Z,9.15
2022-09-11T17:29:01.312Z,13.00
2022-09-11T17:31:46.896Z,7.07
2022-09-11T17:34:32.112Z,5.70
2022-09-11T17:37:17.998Z,4.55
2022-09-11T17:40:05.893Z,4.03
2022-09-11T17:42:51.215Z,6.85
2022-09-11T17:45:36.666Z,3.83
2022-09-11T17:48:22.200Z,4.07
2022-09-11T17:51:13.899Z,4.93
2022-09-11T17:53:59.350Z,3.35
2022-09-11T17:56:46.851Z,4.20
2022-09-11T17:59:32.056Z,4.95
2022-09-11T18:02:18.352Z,3.80
2022-09-11T18:05:04.789Z,3.60
2022-09-11T18:07:50.907Z,3.50
2022-09-11T18:10:37.617Z,2.88
2022-09-11T18:13:22.902Z,3.28
2022-09-11T18:16:11.478Z,3.63
2022-09-11T18:18:57.308Z,4.28
2022-09-11T18:21:45.557Z,4.38
2022-09-11T18:24:35.569Z,3.92
2022-09-11T18:27:20.824Z,4.57
2022-09-11T18:30:06.704Z,4.10
2022-09-11T18:32:51.946Z,4.20
2022-09-11T18:35:38.995Z,4.78
2022-09-11T18:38:31.028Z,4.32
2022-09-11T18:41:22.442Z,4.47
2022-09-11T18:44:15.183Z,4.47
2022-09-11T18:47:04.386Z,9.50
2022-09-11T18:49:51.412Z,6.55
2022-09-11T18:52:38.614Z,8.40
2022-09-11T18:55:24.302Z,5.38
2022-09-11T18:58:10.441Z,5.57
2022-09-11T19:00:56.702Z,4.65
2022-09-11T19:03:45.314Z,4.85
2022-09-11T19:06:30.918Z,4.90
2022-09-11T19:09:19.329Z,9.93
2022-09-11T19:15:16.769Z,6.32
2022-09-11T19:18:05.269Z,6.05
2022-09-11T19:21:10.100Z,8.07
2022-09-11T19:23:57.869Z,6.72
2022-09-11T19:26:45.020Z,7.07
2022-09-11T19:29:33.232Z,6.88
2022-09-11T19:32:19.371Z,6.43
2022-09-11T19:35:08.123Z,6.68
2022-09-11T19:37:55.901Z,6.53
2022-09-11T19:40:40.965Z,6.65
2022-09-11T19:43:34.952Z,7.22
2022-09-11T19:46:26.308Z,7.70
2022-09-11T19:49:11.776Z,7.82
2022-09-11T19:51:58.132Z,8.57
2022-09-11T19:54:45.859Z,8.73
2022-09-11T19:57:30.940Z,7.13
2022-09-11T20:00:16.375Z,7.13
2022-09-11T20:03:02.051Z,7.25
2022-09-11T20:05:48.409Z,7.80
2022-09-11T20:08:35.616Z,7.38
2022-09-11T20:11:25.235Z,7.20
2022-09-11T20:14:10.658Z,6.78
2022-09-11T20:16:55.746Z,7.13
2022-09-11T20:19:44.643Z,6.68
2022-09-11T20:22:29.942Z,7.32
2022-09-11T20:25:15.532Z,7.50
2022-09-11T20:28:00.983Z,7.07
2022-09-11T20:30:46.368Z,7.72
2022-09-11T20:33:31.748Z,6.40
2022-09-11T20:36:18.448Z,6.75
2022-09-11T20:39:05.259Z,7.20
2022-09-11T20:41:50.637Z,6.18
2022-09-11T20:44:37.234Z,6.65
2022-09-11T20:47:23.340Z,6.32
2022-09-11T20:50:09.537Z,5.18
2022-09-11T20:52:55.317Z,6.05
2022-09-11T20:55:43.598Z,6.68
2022-09-11T20:58:29.501Z,5.35
2022-09-11T21:01:19.133Z,4.82
2022-09-11T21:04:04.506Z,4.32
2022-09-11T21:06:52.156Z,5.03
2022-09-11T21:09:40.082Z,4.38
2022-09-11T21:12:25.298Z,3.97
2022-09-11T21:15:10.641Z,4.22
2022-09-11T21:17:56.582Z,4.28
2022-09-11T21:20:41.921Z,4.75
2022-09-11T21:23:27.031Z,4.47
2022-09-11T21:26:15.525Z,4.10
2022-09-11T21:29:03.105Z,4.70
2022-09-11T21:31:48.286Z,4.40
2022-09-11T21:34:33.781Z,5.22
2022-09-11T21:37:18.943Z,3.58
2022-09-11T21:40:05.198Z,4.28
2022-09-11T21:42:50.897Z,3.97
2022-09-11T21:45:35.866Z,4.18
2022-09-11T21:48:21.904Z,4.20
2022-09-11T21:51:18.547Z,3.67
2022-09-11T21:54:04.147Z,4.22
2022-09-11T21:56:49.209Z,3.97
2022-09-11T21:59:34.571Z,3.88
2022-09-11T22:02:20.337Z,4.25
2022-09-11T22:05:06.311Z,3.97
2022-09-11T22:07:51.607Z,3.58
2022-09-11T22:10:41.937Z,3.55
2022-09-11T22:13:27.189Z,3.50
2022-09-11T22:16:15.515Z,3.92
2022-09-11T22:19:01.034Z,4.25
2022-09-11T22:21:46.369Z,3.80
2022-09-11T22:24:31.824Z,3.78
2022-09-11T22:27:17.254Z,3.85
2022-09-11T22:30:04.177Z,3.78
2022-09-11T22:32:50.459Z,2.92
2022-09-11T22:35:36.254Z,3.42
2022-09-11T22:38:21.635Z,2.40
2022-09-11T22:41:07.347Z,3.05
2022-09-11T22:43:53.019Z,3.17
2022-09-11T22:46:38.425Z,3.17
2022-09-11T22:49:23.581Z,3.53
2022-09-11T22:52:09.237Z,3.05
2022-09-11T22:54:54.449Z,3.10
2022-09-11T22:57:39.901Z,3.67
2022-09-11T23:00:25.257Z,3.25
2022-09-11T23:03:10.623Z,4.18
2022-09-11T23:06:15.362Z,3.83
2022-09-11T23:09:04.051Z,3.08
2022-09-11T23:11:49.451Z,3.10
2022-09-11T23:14:34.799Z,3.83
2022-09-11T23:17:20.338Z,3.60
2022-09-11T23:20:06.390Z,4.03
2022-09-11T23:22:52.322Z,3.17
2022-09-11T23:25:42.190Z,3.00
2022-09-11T23:28:27.527Z,3.03
2022-09-11T23:31:16.114Z,3.05
2022-09-11T23:34:06.471Z,2.50
2022-09-11T23:36:52.024Z,3.40
2022-09-11T23:39:37.478Z,2.70
2022-09-11T23:42:23.621Z,3.03
2022-09-11T23:45:10.170Z,3.00
2022-09-11T23:47:55.304Z,2.70
2022-09-11T23:50:40.881Z,2.92
2022-09-11T23:53:26.512Z,2.90
2022-09-11T23:56:14.328Z,2.30
2022-09-11T23:58:59.596Z,2.88
